• Join FlightAware (Why Join?)
  • Login
  • US Flag 
03:23AM EDT


 

Airport Tracker/Info


-or-


 

Live Flight TrackerFlight Track Log ✈ AMX169 ✈ 26-Aug-2014 ✈ MMCL / CUL - MMMX / MEX

Flight Track Log - Related Links

Times and Time Zones

All times are in EDT time to prevent confusion due to time zone crossing. See the AMX169 flight status page for this flight to view local times or setup timezone preferences in your user account.

Time Position Orientation Groundspeed Altitude Reporting Facility
EDT Latitude Longitude Course Direction KTS MPH feet Rate Location/Type
08:27AM 24.0059 -106.1926 123° Southeast  Level Estimated
08:28AM 23.9471 -106.0946 123° Southeast  Level Estimated
08:29AM 23.8882 -105.9967 123° Southeast  Level Estimated
08:30AM 23.8293 -105.8989 123° Southeast  Level Estimated
08:31AM 23.7703 -105.8012 123° Southeast  Level Estimated
08:32AM 23.7112 -105.7035 123° Southeast  Level Estimated
08:33AM 23.6521 -105.6060 123° Southeast  Level Estimated
08:34AM 23.5930 -105.5085 124° Southeast  Level Estimated
08:35AM 23.5337 -105.4112 124° Southeast  Level Estimated
08:36AM 23.4744 -105.3139 124° Southeast  Level Estimated
08:37AM 23.4151 -105.2167 124° Southeast  Level Estimated
08:38AM 23.3557 -105.1196 124° Southeast  Level Estimated
08:39AM 23.2962 -105.0226 124° Southeast  Level Estimated
08:40AM 23.2367 -104.9256 124° Southeast  Level Estimated
08:41AM 23.1771 -104.8288 124° Southeast  Level Estimated
08:42AM 23.1174 -104.7320 124° Southeast  Level Estimated
08:43AM 23.0577 -104.6353 124° Southeast  Level Estimated
08:44AM 22.9979 -104.5387 124° Southeast  Level Estimated
08:45AM 22.9381 -104.4422 124° Southeast  Level Estimated
08:46AM 22.8782 -104.3458 124° Southeast  Level Estimated
08:47AM 22.8183 -104.2495 124° Southeast  Level Estimated
08:48AM 22.7583 -104.1532 124° Southeast  Level Estimated
08:49AM 22.6982 -104.0571 124° Southeast  Level Estimated
08:50AM 22.6381 -103.9610 124° Southeast  Level Estimated
08:51AM 22.5779 -103.8650 124° Southeast  Level Estimated
08:52AM 22.5177 -103.7691 124° Southeast  Level Estimated
08:53AM 22.4574 -103.6732 124° Southeast  Level Estimated
08:54AM 22.3971 -103.5775 124° Southeast  Level Estimated
08:55AM 22.3367 -103.4818 124° Southeast  Level Estimated
08:56AM 22.2762 -103.3863 124° Southeast  Level Estimated
08:57AM 22.2157 -103.2908 124° Southeast  Level Estimated
08:58AM 22.1551 -103.1954 124° Southeast  Level Estimated
08:59AM 22.0945 -103.1000 124° Southeast  Level Estimated
09:00AM 22.0338 -103.0048 124° Southeast  Level Estimated
09:01AM 21.9731 -102.9096 125° Southeast  Level Estimated
09:02AM 21.9123 -102.8145 125° Southeast  Level Estimated
09:03AM 21.8515 -102.7195 125° Southeast  Level Estimated
09:04AM 21.7906 -102.6246 125° Southeast  Level Estimated
09:05AM 21.7296 -102.5297 125° Southeast  Level Estimated
09:06AM 21.6686 -102.4350 125° Southeast  Level Estimated
09:07AM 21.6075 -102.3403 125° Southeast  Level Estimated
09:08AM 21.5464 -102.2457 125° Southeast  Level Estimated
09:09AM 21.4853 -102.1512 125° Southeast  Level Estimated
09:10AM 21.4241 -102.0567 125° Southeast  Level Estimated
09:11AM 21.3628 -101.9623 125° Southeast  Level Estimated
09:12AM 21.3015 -101.8681 125° Southeast  Level Estimated
09:13AM 21.2401 -101.7739 125° Southeast  Level Estimated
09:14AM 21.1786 -101.6797 125° Southeast  Level Estimated
09:15AM 21.1172 -101.5857 125° Southeast  Level Estimated
09:16AM 21.0556 -101.4917 125° Southeast  Level Estimated
09:17AM 20.9940 -101.3978 125° Southeast  Level Estimated
09:18AM 20.9324 -101.3040 125° Southeast  Level Estimated
09:19AM 20.8707 -101.2103 125° Southeast  Level Estimated
09:20AM 20.8090 -101.1166 125° Southeast  Level Estimated
09:21AM 20.7472 -101.0230 125° Southeast  Level Estimated
09:22AM 20.6854 -100.9295 125° Southeast  Level Estimated
09:23AM 20.6235 -100.8361 125° Southeast  Level Estimated
09:24AM 20.5615 -100.7427 125° Southeast  Level Estimated
09:25AM 20.4995 -100.6494 125° Southeast  Level Estimated
09:26AM 20.4375 -100.5562 125° Southeast  Level Estimated
09:27AM 20.3754 -100.4631 125° Southeast  Level Estimated
09:28AM 20.3133 -100.3700 125° Southeast  Level Estimated
09:29AM 20.2511 -100.2770 125° Southeast  Level Estimated
09:30AM 20.1888 -100.1841 126° Southeast  Level Estimated
09:31AM 20.1266 -100.0913 126° Southeast  Level Estimated
09:32AM 20.0642 -99.9985 126° Southeast  Level Estimated
09:33AM 20.0018 -99.9058 126° Southeast  Level Estimated
09:34AM 19.9394 -99.8132 126° Southeast  Level Estimated
09:35AM 19.8769 -99.7207 126° Southeast  Level Estimated
09:36AM 19.8144 -99.6282 126° Southeast  Level Estimated
09:37AM 19.7518 -99.5358 126° Southeast  Level Estimated
09:38AM 19.6892 -99.4435 126° Southeast  Level Estimated
09:39AM 19.6265 -99.3512 126° Southeast  Level Estimated
09:40AM 19.5638 -99.2591 126° Southeast  Level Estimated
09:41AM 19.5011 -99.1670 126° Southeast  Level Estimated
09:42AM 19.4382 -99.0749 126° Southeast  Level Estimated
09:43AM 19.4363 -99.0721 126° Southeast  Level Estimated
09:44AM 19.4363 -99.0721 North  Level Estimated
09:45AM 19.4363 -99.0721 North  Level Estimated
09:46AM 19.4363 -99.0721 North  Level Estimated
09:47AM 19.4363 -99.0721 North  Level Estimated
09:48AM 19.4363 -99.0721 North  Level Estimated
09:49AM 19.4363 -99.0721 North  Level Estimated
09:50AM 19.4363 -99.0721 North  Level Estimated
09:51AM 19.4363 -99.0721 North  Level Estimated
09:52AM 19.4363 -99.0721 North  Level Estimated
09:53AM 19.4363 -99.0721 North  Level Estimated
09:54AM 19.4363 -99.0721 North  Level Estimated
09:55AM 19.4363 -99.0721 North  Level Estimated
09:56AM 19.4363 -99.0721 North  Level Estimated
09:57AM 19.4363 -99.0721 North  Level Estimated
09:58AM 19.4363 -99.0721 North  Level Estimated